Flight Track Log - Related Links

Times and Time Zones

All times are in EDT time to prevent confusion due to time zone crossing. See the USC105 flight status page for this flight to view local times or setup timezone preferences in your user account.

Time Position Orientation Groundspeed Altitude Reporting Facility
EDT Latitude Longitude Course Direction KTS MPH feet Rate Location/Type
Thu 11:14:40 PM 41.5628 -81.6847 344° North 159 183 1,600  Level Cleveland Center
Thu 11:15:40 PM 41.6064 -81.7133 334° Northwest 159 183 2,700 992 Climbing Cleveland Center
Thu 11:16:41 PM 41.6372 -81.7472 321° Northwest 154 177 3,600 885 Climbing Cleveland Center
Thu 11:17:42 PM 41.6492 -81.8003 287° West 142 163 4,500 942 Climbing Cleveland Center
Thu 11:18:42 PM 41.6592 -81.8478 286° West 142 163 5,500 744 Climbing Cleveland Center
Thu 11:19:43 PM 41.6708 -81.9008 286° West 144 166 6,000 198 Climbing Cleveland Center
Thu 11:20:43 PM 41.6869 -81.9622 289° West 177 204 5,900  Descending Cleveland Center
Thu 11:21:44 PM 41.7008 -82.0208 288° West 173 199 6,000 49 Climbing Cleveland Center
Thu 11:22:45 PM 41.7167 -82.0881 288° West 184 212 6,000  Level Cleveland Center
Thu 11:23:45 PM 41.7322 -82.1581 287° West 181 208 6,000  Level Cleveland Center
Thu 11:24:46 PM 41.7481 -82.2225 288° West 185 213 6,000  Level Cleveland Center
Thu 11:25:46 PM 41.7639 -82.2897 288° West 188 216 6,000  Level Cleveland Center
Thu 11:26:47 PM 41.7775 -82.3567 285° West 189 217 6,000  Level Cleveland Center
Thu 11:27:37 PM 41.7933 -82.4103 292° West 190 219 6,000  Level Cleveland Center
Thu 11:28:01 PM 41.7969 -82.4353 281° West 190 219 6,000  Level Cleveland Center
Thu 11:29:08 PM 41.8167 -82.5139 289° West 191 220 6,000  Level Cleveland Center
Thu 11:30:08 PM 41.8300 -82.5839 284° West 191 220 6,000  Level Cleveland Center
Thu 11:31:21 PM 41.8558 -82.6572 295° West 194 223 6,000  Level Cleveland Center
Thu 11:32:22 PM 41.8794 -82.7278 294° West 193 222 6,000  Level Cleveland Center
Thu 11:33:16 PM 41.8972 -82.7842 293° West 194 223 6,000  Level Cleveland Center
Thu 11:34:17 PM 41.9208 -82.8547 294° West 193 222 6,000  Level Cleveland Center
Thu 11:35:17 PM 41.9444 -82.9197 296° West 194 223 6,000 -198 Level Cleveland Center
Thu 11:36:18 PM 41.9681 -82.9850 296° West 196 226 5,600 -443 Descending Cleveland Center
Thu 11:37:19 PM 41.9894 -83.0583 291° West 209 241 5,100 -446 Descending Cleveland Center
Thu 11:38:19 PM 42.0128 -83.1319 293° West 209 241 4,700 -496 Descending Cleveland Center
Thu 11:39:20 PM 42.0386 -83.1944 299° West 204 235 4,100 -545 Descending Cleveland Center
Thu 11:40:20 PM 42.0619 -83.2681 293° West 207 238 3,600 -520 Descending Cleveland Center
Thu 11:41:27 PM 42.0850 -83.3503 291° West 202 232 3,000 -295 Descending Cleveland Center
Thu 11:42:22 PM 42.1044 -83.4072 295° West 179 206 3,000 -261 Level Cleveland Center
Thu 11:43:22 PM 42.1281 -83.4697 297° West 191 220 2,500 -313 Descending Cleveland Center
Thu 11:44:17 PM 42.1558 -83.5186 307° West 183 211 2,400 -157 Descending Cleveland Center
Thu 11:45:17 PM 42.1881 -83.5622 315° West 161 185 2,200 -545 Descending Cleveland Center
Thu 11:46:18 PM 42.2217 -83.5553 North 113 130 1,300 -885 Descending Cleveland Center
Thu 11:48:00 PM 42.2333 -83.5167 270° West  Level FlightAware
Thu 11:55:00 PM 42.2393 -83.5310 270° West  Level Estimated

Login

Don't have an account? Register now (free) for customized features, flight alerts, and more!